sensor_id;sensor_type;location;lat;lon;timestamp;temperature;humidity
6879;DHT22;3478;51.462;7.338;2023-07-20T00:02:45;16.90;99.90
6879;DHT22;3478;51.462;7.338;2023-07-20T00:07:48;16.90;99.90
6879;DHT22;3478;51.462;7.338;2023-07-20T00:12:52;17.00;99.90
6879;DHT22;3478;51.462;7.338;2023-07-20T00:17:54;17.00;99.90
6879;DHT22;3478;51.462;7.338;2023-07-20T00:22:57;17.00;99.90
6879;DHT22;3478;51.462;7.338;2023-07-20T00:27:59;17.00;99.90
6879;DHT22;3478;51.462;7.338;2023-07-20T00:33:01;17.00;99.90
6879;DHT22;3478;51.462;7.338;2023-07-20T00:38:05;17.00;99.90
6879;DHT22;3478;51.462;7.338;2023-07-20T00:43:07;17.00;99.90
6879;DHT22;3478;51.462;7.338;2023-07-20T00:48:09;17.00;99.90
6879;DHT22;3478;51.462;7.338;2023-07-20T00:53:13;17.00;99.90
6879;DHT22;3478;51.462;7.338;2023-07-20T00:58:15;16.90;99.90
6879;DHT22;3478;51.462;7.338;2023-07-20T01:03:17;16.90;99.90
6879;DHT22;3478;51.462;7.338;2023-07-20T01:08:27;16.90;99.90
6879;DHT22;3478;51.462;7.338;2023-07-20T01:13:31;16.80;99.90
6879;DHT22;3478;51.462;7.338;2023-07-20T01:18:33;16.90;99.90
6879;DHT22;3478;51.462;7.338;2023-07-20T01:23:50;16.90;99.90
6879;DHT22;3478;51.462;7.338;2023-07-20T01:29:23;16.80;99.90
6879;DHT22;3478;51.462;7.338;2023-07-20T01:34:29;16.70;99.90
6879;DHT22;3478;51.462;7.338;2023-07-20T01:39:33;16.70;99.90
6879;DHT22;3478;51.462;7.338;2023-07-20T01:44:37;16.70;99.90
6879;DHT22;3478;51.462;7.338;2023-07-20T01:49:40;16.60;99.90
6879;DHT22;3478;51.462;7.338;2023-07-20T01:54:42;16.60;99.90
6879;DHT22;3478;51.462;7.338;2023-07-20T01:59:43;16.60;99.90
6879;DHT22;3478;51.462;7.338;2023-07-20T02:04:47;16.50;99.90
6879;DHT22;3478;51.462;7.338;2023-07-20T02:09:48;16.50;99.90
6879;DHT22;3478;51.462;7.338;2023-07-20T02:14:50;16.40;99.90
6879;DHT22;3478;51.462;7.338;2023-07-20T02:19:56;16.40;99.90
6879;DHT22;3478;51.462;7.338;2023-07-20T02:24:59;16.40;99.90
6879;DHT22;3478;51.462;7.338;2023-07-20T02:30:02;16.40;99.90
6879;DHT22;3478;51.462;7.338;2023-07-20T02:35:06;16.40;99.90
6879;DHT22;3478;51.462;7.338;2023-07-20T02:40:09;16.40;99.90
6879;DHT22;3478;51.462;7.338;2023-07-20T02:45:11;16.40;99.90
6879;DHT22;3478;51.462;7.338;2023-07-20T02:50:15;16.30;99.90
6879;DHT22;3478;51.462;7.338;2023-07-20T02:55:17;16.20;99.90
6879;DHT22;3478;51.462;7.338;2023-07-20T03:00:19;16.20;99.90
6879;DHT22;3478;51.462;7.338;2023-07-20T03:05:25;16.20;99.90
6879;DHT22;3478;51.462;7.338;2023-07-20T03:10:27;16.20;99.90
6879;DHT22;3478;51.462;7.338;2023-07-20T03:15:29;16.20;99.90
6879;DHT22;3478;51.462;7.338;2023-07-20T03:20:33;16.20;99.90
6879;DHT22;3478;51.462;7.338;2023-07-20T03:25:36;16.10;99.90
6879;DHT22;3478;51.462;7.338;2023-07-20T03:30:39;16.10;99.90
6879;DHT22;3478;51.462;7.338;2023-07-20T03:35:44;16.00;99.90
6879;DHT22;3478;51.462;7.338;2023-07-20T03:40:51;16.00;99.90
6879;DHT22;3478;51.462;7.338;2023-07-20T03:45:54;16.10;99.90
6879;DHT22;3478;51.462;7.338;2023-07-20T03:50:58;16.00;99.90
6879;DHT22;3478;51.462;7.338;2023-07-20T03:56:00;16.00;99.90
6879;DHT22;3478;51.462;7.338;2023-07-20T04:01:02;16.00;99.90
6879;DHT22;3478;51.462;7.338;2023-07-20T04:06:05;16.10;99.90
6879;DHT22;3478;51.462;7.338;2023-07-20T04:11:08;16.10;99.90
6879;DHT22;3478;51.462;7.338;2023-07-20T04:16:10;16.20;99.90
6879;DHT22;3478;51.462;7.338;2023-07-20T04:21:13;16.30;99.90
6879;DHT22;3478;51.462;7.338;2023-07-20T04:26:15;16.30;99.90
6879;DHT22;3478;51.462;7.338;2023-07-20T04:31:17;16.30;99.90
6879;DHT22;3478;51.462;7.338;2023-07-20T04:36:20;16.40;99.90
6879;DHT22;3478;51.462;7.338;2023-07-20T04:41:22;16.40;99.90
6879;DHT22;3478;51.462;7.338;2023-07-20T04:46:25;16.50;99.90
6879;DHT22;3478;51.462;7.338;2023-07-20T04:51:28;16.50;99.90
6879;DHT22;3478;51.462;7.338;2023-07-20T04:56:30;16.30;99.90
6879;DHT22;3478;51.462;7.338;2023-07-20T05:01:33;16.30;99.90
6879;DHT22;3478;51.462;7.338;2023-07-20T05:06:36;16.30;99.90
6879;DHT22;3478;51.462;7.338;2023-07-20T05:11:39;16.50;99.90
6879;DHT22;3478;51.462;7.338;2023-07-20T05:16:41;16.60;99.90
6879;DHT22;3478;51.462;7.338;2023-07-20T05:21:44;16.70;99.90
6879;DHT22;3478;51.462;7.338;2023-07-20T05:26:46;16.90;99.90
6879;DHT22;3478;51.462;7.338;2023-07-20T05:31:47;16.90;99.90
6879;DHT22;3478;51.462;7.338;2023-07-20T05:36:51;17.00;99.90
6879;DHT22;3478;51.462;7.338;2023-07-20T05:41:52;17.10;99.90
6879;DHT22;3478;51.462;7.338;2023-07-20T05:46:54;17.20;99.90
6879;DHT22;3478;51.462;7.338;2023-07-20T05:51:58;17.30;99.90
6879;DHT22;3478;51.462;7.338;2023-07-20T05:57:01;17.30;99.90
6879;DHT22;3478;51.462;7.338;2023-07-20T06:02:03;17.40;99.90
6879;DHT22;3478;51.462;7.338;2023-07-20T06:07:07;17.40;99.90
6879;DHT22;3478;51.462;7.338;2023-07-20T06:12:09;17.50;99.90
6879;DHT22;3478;51.462;7.338;2023-07-20T06:17:11;17.50;99.90
6879;DHT22;3478;51.462;7.338;2023-07-20T06:22:14;17.50;99.90
6879;DHT22;3478;51.462;7.338;2023-07-20T06:27:16;17.50;99.90
6879;DHT22;3478;51.462;7.338;2023-07-20T06:32:18;17.60;99.90
6879;DHT22;3478;51.462;7.338;2023-07-20T06:37:21;17.70;99.90
6879;DHT22;3478;51.462;7.338;2023-07-20T06:42:23;18.10;99.90
6879;DHT22;3478;51.462;7.338;2023-07-20T06:47:24;18.40;99.90
6879;DHT22;3478;51.462;7.338;2023-07-20T06:52:28;18.50;99.90
6879;DHT22;3478;51.462;7.338;2023-07-20T06:57:29;18.60;99.90
6879;DHT22;3478;51.462;7.338;2023-07-20T07:02:31;18.70;99.90
6879;DHT22;3478;51.462;7.338;2023-07-20T07:07:35;18.80;99.90
6879;DHT22;3478;51.462;7.338;2023-07-20T07:12:37;18.70;99.90
6879;DHT22;3478;51.462;7.338;2023-07-20T07:17:38;19.10;99.90
6879;DHT22;3478;51.462;7.338;2023-07-20T07:22:42;19.60;99.90
6879;DHT22;3478;51.462;7.338;2023-07-20T07:27:44;19.70;99.90
6879;DHT22;3478;51.462;7.338;2023-07-20T07:32:46;19.40;99.90
6879;DHT22;3478;51.462;7.338;2023-07-20T07:37:49;19.30;99.90
6879;DHT22;3478;51.462;7.338;2023-07-20T07:42:51;19.20;99.90
6879;DHT22;3478;51.462;7.338;2023-07-20T07:47:53;18.90;99.90
6879;DHT22;3478;51.462;7.338;2023-07-20T07:52:57;18.80;99.90
6879;DHT22;3478;51.462;7.338;2023-07-20T07:57:59;19.00;99.90
6879;DHT22;3478;51.462;7.338;2023-07-20T08:03:01;19.40;99.90
6879;DHT22;3478;51.462;7.338;2023-07-20T08:08:04;19.80;99.90
6879;DHT22;3478;51.462;7.338;2023-07-20T08:13:06;20.00;99.90
6879;DHT22;3478;51.462;7.338;2023-07-20T08:18:08;19.90;99.90
6879;DHT22;3478;51.462;7.338;2023-07-20T08:23:11;19.50;99.90
6879;DHT22;3478;51.462;7.338;2023-07-20T08:28:14;19.50;99.90
6879;DHT22;3478;51.462;7.338;2023-07-20T08:33:17;19.60;99.90
6879;DHT22;3478;51.462;7.338;2023-07-20T08:38:21;19.80;99.90
6879;DHT22;3478;51.462;7.338;2023-07-20T08:43:23;20.30;99.90
6879;DHT22;3478;51.462;7.338;2023-07-20T08:48:27;20.60;99.90
6879;DHT22;3478;51.462;7.338;2023-07-20T08:53:31;20.40;99.90
6879;DHT22;3478;51.462;7.338;2023-07-20T08:58:34;20.30;99.90
6879;DHT22;3478;51.462;7.338;2023-07-20T09:03:36;20.50;99.90
6879;DHT22;3478;51.462;7.338;2023-07-20T09:08:41;20.90;99.90
6879;DHT22;3478;51.462;7.338;2023-07-20T09:13:43;21.20;99.90
6879;DHT22;3478;51.462;7.338;2023-07-20T09:18:45;21.40;99.90
6879;DHT22;3478;51.462;7.338;2023-07-20T09:23:48;21.00;99.90
6879;DHT22;3478;51.462;7.338;2023-07-20T09:28:53;20.30;99.90
6879;DHT22;3478;51.462;7.338;2023-07-20T09:33:56;20.30;99.90
6879;DHT22;3478;51.462;7.338;2023-07-20T09:39:00;20.60;99.90
6879;DHT22;3478;51.462;7.338;2023-07-20T09:44:02;21.20;99.90
6879;DHT22;3478;51.462;7.338;2023-07-20T09:49:08;21.80;99.90
6879;DHT22;3478;51.462;7.338;2023-07-20T09:54:13;21.80;99.90
6879;DHT22;3478;51.462;7.338;2023-07-20T09:59:15;21.50;99.90
6879;DHT22;3478;51.462;7.338;2023-07-20T10:04:18;21.90;99.90
6879;DHT22;3478;51.462;7.338;2023-07-20T10:09:22;22.70;99.90
6879;DHT22;3478;51.462;7.338;2023-07-20T10:14:28;23.20;99.90
6879;DHT22;3478;51.462;7.338;2023-07-20T10:19:41;23.70;99.50
6879;DHT22;3478;51.462;7.338;2023-07-20T10:24:47;24.40;99.90
6879;DHT22;3478;51.462;7.338;2023-07-20T10:29:49;24.50;98.10
6879;DHT22;3478;51.462;7.338;2023-07-20T10:34:52;24.50;96.60
6879;DHT22;3478;51.462;7.338;2023-07-20T10:39:56;24.60;93.40
6879;DHT22;3478;51.462;7.338;2023-07-20T10:45:01;24.30;94.60
6879;DHT22;3478;51.462;7.338;2023-07-20T10:50:03;24.00;94.20
6879;DHT22;3478;51.462;7.338;2023-07-20T10:55:14;22.70;95.00
6879;DHT22;3478;51.462;7.338;2023-07-20T11:00:19;22.60;95.80
6879;DHT22;3478;51.462;7.338;2023-07-20T11:05:37;22.80;98.80
6879;DHT22;3478;51.462;7.338;2023-07-20T11:10:40;23.90;95.90
6879;DHT22;3478;51.462;7.338;2023-07-20T11:15:46;24.80;91.30
6879;DHT22;3478;51.462;7.338;2023-07-20T11:20:50;24.20;88.70
6879;DHT22;3478;51.462;7.338;2023-07-20T11:25:53;23.50;86.50
6879;DHT22;3478;51.462;7.338;2023-07-20T11:30:55;24.20;90.50
6879;DHT22;3478;51.462;7.338;2023-07-20T11:35:57;25.10;85.10
6879;DHT22;3478;51.462;7.338;2023-07-20T11:41:02;25.40;88.10
6879;DHT22;3478;51.462;7.338;2023-07-20T11:46:05;26.10;82.60
6879;DHT22;3478;51.462;7.338;2023-07-20T11:51:13;25.80;76.30
6879;DHT22;3478;51.462;7.338;2023-07-20T11:56:17;26.40;76.10
6879;DHT22;3478;51.462;7.338;2023-07-20T12:01:20;27.50;78.00
6879;DHT22;3478;51.462;7.338;2023-07-20T12:06:23;27.30;73.90
6879;DHT22;3478;51.462;7.338;2023-07-20T12:11:37;26.90;71.00
6879;DHT22;3478;51.462;7.338;2023-07-20T12:16:39;26.90;68.60
6879;DHT22;3478;51.462;7.338;2023-07-20T12:21:41;27.60;69.00
6879;DHT22;3478;51.462;7.338;2023-07-20T12:26:45;28.30;62.30
6879;DHT22;3478;51.462;7.338;2023-07-20T12:31:46;28.20;64.20
6879;DHT22;3478;51.462;7.338;2023-07-20T12:36:48;29.30;61.40
6879;DHT22;3478;51.462;7.338;2023-07-20T12:41:51;29.90;56.30
6879;DHT22;3478;51.462;7.338;2023-07-20T12:46:53;29.50;54.30
6879;DHT22;3478;51.462;7.338;2023-07-20T12:51:55;28.50;54.80
6879;DHT22;3478;51.462;7.338;2023-07-20T12:56:58;27.00;58.50
6879;DHT22;3478;51.462;7.338;2023-07-20T13:02:00;26.20;59.10
6879;DHT22;3478;51.462;7.338;2023-07-20T13:07:02;26.00;60.20
6879;DHT22;3478;51.462;7.338;2023-07-20T13:12:07;27.80;58.70
6879;DHT22;3478;51.462;7.338;2023-07-20T13:17:09;29.30;55.80
6879;DHT22;3478;51.462;7.338;2023-07-20T13:22:11;27.80;53.90
6879;DHT22;3478;51.462;7.338;2023-07-20T13:27:15;27.30;55.70
6879;DHT22;3478;51.462;7.338;2023-07-20T13:32:17;26.50;58.50
6879;DHT22;3478;51.462;7.338;2023-07-20T13:37:19;25.90;60.40
6879;DHT22;3478;51.462;7.338;2023-07-20T13:42:23;25.00;61.20
6879;DHT22;3478;51.462;7.338;2023-07-20T13:47:26;24.50;62.20
6879;DHT22;3478;51.462;7.338;2023-07-20T13:52:28;24.80;64.50
6879;DHT22;3478;51.462;7.338;2023-07-20T13:57:31;24.70;62.50
6879;DHT22;3478;51.462;7.338;2023-07-20T14:02:33;24.50;64.50
6879;DHT22;3478;51.462;7.338;2023-07-20T14:07:34;24.30;63.20
6879;DHT22;3478;51.462;7.338;2023-07-20T14:12:38;24.50;70.00
6879;DHT22;3478;51.462;7.338;2023-07-20T14:17:39;25.30;62.00
6879;DHT22;3478;51.462;7.338;2023-07-20T14:22:41;25.10;62.50
6879;DHT22;3478;51.462;7.338;2023-07-20T14:27:46;24.90;66.00
6879;DHT22;3478;51.462;7.338;2023-07-20T14:32:48;26.60;60.30
6879;DHT22;3478;51.462;7.338;2023-07-20T14:37:50;26.20;59.90
6879;DHT22;3478;51.462;7.338;2023-07-20T14:42:53;25.80;61.60
6879;DHT22;3478;51.462;7.338;2023-07-20T14:47:55;26.60;59.40
6879;DHT22;3478;51.462;7.338;2023-07-20T14:52:57;27.20;56.70
6879;DHT22;3478;51.462;7.338;2023-07-20T14:58:00;28.70;56.50
6879;DHT22;3478;51.462;7.338;2023-07-20T15:03:02;28.70;53.90
6879;DHT22;3478;51.462;7.338;2023-07-20T15:08:06;28.20;55.10
6879;DHT22;3478;51.462;7.338;2023-07-20T15:13:10;26.60;56.50
6879;DHT22;3478;51.462;7.338;2023-07-20T15:18:12;26.00;57.80
6879;DHT22;3478;51.462;7.338;2023-07-20T15:23:14;25.80;60.00
6879;DHT22;3478;51.462;7.338;2023-07-20T15:28:17;26.00;61.10
6879;DHT22;3478;51.462;7.338;2023-07-20T15:33:19;26.30;60.50
6879;DHT22;3478;51.462;7.338;2023-07-20T15:38:21;27.20;59.80
6879;DHT22;3478;51.462;7.338;2023-07-20T15:43:24;28.80;55.10
6879;DHT22;3478;51.462;7.338;2023-07-20T15:48:26;30.00;52.30
6879;DHT22;3478;51.462;7.338;2023-07-20T15:53:27;29.90;53.00
6879;DHT22;3478;51.462;7.338;2023-07-20T15:58:31;28.30;53.50
6879;DHT22;3478;51.462;7.338;2023-07-20T16:03:33;26.40;56.50
6879;DHT22;3478;51.462;7.338;2023-07-20T16:08:35;25.30;59.10
6879;DHT22;3478;51.462;7.338;2023-07-20T16:13:38;25.10;61.10
6879;DHT22;3478;51.462;7.338;2023-07-20T16:18:40;26.30;60.60
6879;DHT22;3478;51.462;7.338;2023-07-20T16:23:42;27.40;54.90
6879;DHT22;3478;51.462;7.338;2023-07-20T16:28:45;28.70;55.00
6879;DHT22;3478;51.462;7.338;2023-07-20T16:33:47;28.50;54.90
6879;DHT22;3478;51.462;7.338;2023-07-20T16:38:49;27.10;54.10
6879;DHT22;3478;51.462;7.338;2023-07-20T16:43:52;26.10;58.50
6879;DHT22;3478;51.462;7.338;2023-07-20T16:48:55;25.40;63.20
6879;DHT22;3478;51.462;7.338;2023-07-20T16:53:56;26.10;65.00
6879;DHT22;3478;51.462;7.338;2023-07-20T16:58:59;27.20;60.30
6879;DHT22;3478;51.462;7.338;2023-07-20T17:04:01;28.00;56.40
6879;DHT22;3478;51.462;7.338;2023-07-20T17:09:03;28.60;55.70
6879;DHT22;3478;51.462;7.338;2023-07-20T17:14:07;29.10;53.70
6879;DHT22;3478;51.462;7.338;2023-07-20T17:19:10;29.10;50.80
6879;DHT22;3478;51.462;7.338;2023-07-20T17:24:11;29.30;51.10
6879;DHT22;3478;51.462;7.338;2023-07-20T17:29:15;29.20;51.50
6879;DHT22;3478;51.462;7.338;2023-07-20T17:34:16;28.10;52.40
6879;DHT22;3478;51.462;7.338;2023-07-20T17:39:19;27.40;53.90
6879;DHT22;3478;51.462;7.338;2023-07-20T17:44:22;26.80;56.40
6879;DHT22;3478;51.462;7.338;2023-07-20T17:49:24;26.70;56.50
6879;DHT22;3478;51.462;7.338;2023-07-20T17:54:26;26.70;59.00
6879;DHT22;3478;51.462;7.338;2023-07-20T17:59:29;26.40;59.20
6879;DHT22;3478;51.462;7.338;2023-07-20T18:04:31;25.70;57.90
6879;DHT22;3478;51.462;7.338;2023-07-20T18:09:33;24.90;60.40
6879;DHT22;3478;51.462;7.338;2023-07-20T18:14:36;24.20;61.70
6879;DHT22;3478;51.462;7.338;2023-07-20T18:19:38;23.60;63.60
6879;DHT22;3478;51.462;7.338;2023-07-20T18:24:40;23.20;64.90
6879;DHT22;3478;51.462;7.338;2023-07-20T18:29:44;23.10;65.10
6879;DHT22;3478;51.462;7.338;2023-07-20T18:34:46;22.90;66.60
6879;DHT22;3478;51.462;7.338;2023-07-20T18:39:48;22.70;70.40
6879;DHT22;3478;51.462;7.338;2023-07-20T18:44:51;22.40;69.00
6879;DHT22;3478;51.462;7.338;2023-07-20T18:49:53;22.10;70.40
6879;DHT22;3478;51.462;7.338;2023-07-20T18:54:57;21.90;72.90
6879;DHT22;3478;51.462;7.338;2023-07-20T19:00:00;21.70;75.60
6879;DHT22;3478;51.462;7.338;2023-07-20T19:05:02;21.60;79.00
6879;DHT22;3478;51.462;7.338;2023-07-20T19:10:06;21.50;78.70
6879;DHT22;3478;51.462;7.338;2023-07-20T19:15:11;21.30;79.00
6879;DHT22;3478;51.462;7.338;2023-07-20T19:20:14;21.10;79.40
6879;DHT22;3478;51.462;7.338;2023-07-20T19:25:16;21.10;80.20
6879;DHT22;3478;51.462;7.338;2023-07-20T19:30:19;20.90;77.70
6879;DHT22;3478;51.462;7.338;2023-07-20T19:35:21;20.90;77.30
6879;DHT22;3478;51.462;7.338;2023-07-20T19:40:23;20.80;77.60
6879;DHT22;3478;51.462;7.338;2023-07-20T19:45:26;20.90;79.90
6879;DHT22;3478;51.462;7.338;2023-07-20T19:50:28;20.80;81.80
6879;DHT22;3478;51.462;7.338;2023-07-20T19:55:29;20.80;84.00
6879;DHT22;3478;51.462;7.338;2023-07-20T20:00:37;20.70;83.20
6879;DHT22;3478;51.462;7.338;2023-07-20T20:05:39;20.60;84.50
6879;DHT22;3478;51.462;7.338;2023-07-20T20:10:41;20.60;86.70
6879;DHT22;3478;51.462;7.338;2023-07-20T20:15:44;20.60;87.80
6879;DHT22;3478;51.462;7.338;2023-07-20T20:20:46;20.60;87.70
6879;DHT22;3478;51.462;7.338;2023-07-20T20:25:48;20.60;89.80
6879;DHT22;3478;51.462;7.338;2023-07-20T20:30:51;20.60;90.70
6879;DHT22;3478;51.462;7.338;2023-07-20T20:35:53;20.60;90.70
6879;DHT22;3478;51.462;7.338;2023-07-20T20:40:56;20.50;91.40
6879;DHT22;3478;51.462;7.338;2023-07-20T20:46:03;20.40;93.00
6879;DHT22;3478;51.462;7.338;2023-07-20T20:51:05;20.20;94.10
6879;DHT22;3478;51.462;7.338;2023-07-20T20:56:07;20.20;94.90
6879;DHT22;3478;51.462;7.338;2023-07-20T21:01:10;20.20;95.00
6879;DHT22;3478;51.462;7.338;2023-07-20T21:06:12;20.20;96.10
6879;DHT22;3478;51.462;7.338;2023-07-20T21:11:14;20.20;95.50
6879;DHT22;3478;51.462;7.338;2023-07-20T21:16:17;20.20;95.20
6879;DHT22;3478;51.462;7.338;2023-07-20T21:21:19;20.10;94.50
6879;DHT22;3478;51.462;7.338;2023-07-20T21:26:21;20.00;97.00
6879;DHT22;3478;51.462;7.338;2023-07-20T21:31:24;19.80;99.40
6879;DHT22;3478;51.462;7.338;2023-07-20T21:36:26;19.60;99.90
6879;DHT22;3478;51.462;7.338;2023-07-20T21:41:28;19.40;99.90
6879;DHT22;3478;51.462;7.338;2023-07-20T21:46:31;19.20;99.90
6879;DHT22;3478;51.462;7.338;2023-07-20T21:51:34;19.10;99.90
6879;DHT22;3478;51.462;7.338;2023-07-20T21:56:36;18.60;99.90
6879;DHT22;3478;51.462;7.338;2023-07-20T22:01:39;18.10;99.90
6879;DHT22;3478;51.462;7.338;2023-07-20T22:06:41;17.70;99.90
6879;DHT22;3478;51.462;7.338;2023-07-20T22:11:47;17.50;99.90
6879;DHT22;3478;51.462;7.338;2023-07-20T22:16:50;17.60;99.90
6879;DHT22;3478;51.462;7.338;2023-07-20T22:21:52;17.50;99.90
6879;DHT22;3478;51.462;7.338;2023-07-20T22:26:54;17.50;99.90
6879;DHT22;3478;51.462;7.338;2023-07-20T22:31:57;17.50;99.90
6879;DHT22;3478;51.462;7.338;2023-07-20T22:36:59;17.40;99.90
6879;DHT22;3478;51.462;7.338;2023-07-20T22:42:02;17.40;99.90
6879;DHT22;3478;51.462;7.338;2023-07-20T22:47:05;17.40;99.90
6879;DHT22;3478;51.462;7.338;2023-07-20T22:52:07;17.40;99.90
6879;DHT22;3478;51.462;7.338;2023-07-20T22:57:09;17.40;99.90
6879;DHT22;3478;51.462;7.338;2023-07-20T23:02:13;17.20;99.90
6879;DHT22;3478;51.462;7.338;2023-07-20T23:07:14;17.20;99.90
6879;DHT22;3478;51.462;7.338;2023-07-20T23:12:17;17.30;99.90
6879;DHT22;3478;51.462;7.338;2023-07-20T23:17:20;17.30;99.90
6879;DHT22;3478;51.462;7.338;2023-07-20T23:22:22;17.30;99.90
6879;DHT22;3478;51.462;7.338;2023-07-20T23:27:24;17.40;99.90
6879;DHT22;3478;51.462;7.338;2023-07-20T23:32:27;17.30;99.90
6879;DHT22;3478;51.462;7.338;2023-07-20T23:37:29;17.30;99.90
6879;DHT22;3478;51.462;7.338;2023-07-20T23:42:31;17.10;99.90
6879;DHT22;3478;51.462;7.338;2023-07-20T23:47:34;17.20;99.90
6879;DHT22;3478;51.462;7.338;2023-07-20T23:52:36;17.10;99.90
6879;DHT22;3478;51.462;7.338;2023-07-20T23:57:38;17.00;99.90
